createdAt,value
2023-08-17T00:00:00.623Z,2.70
2023-08-17T00:02:47.685Z,2.40
2023-08-17T00:05:35.162Z,2.80
2023-08-17T00:08:21.810Z,2.60
2023-08-17T00:11:08.145Z,2.60
2023-08-17T00:13:54.515Z,2.30
2023-08-17T00:16:42.846Z,2.50
2023-08-17T00:19:29.357Z,2.87
2023-08-17T00:22:17.471Z,3.03
2023-08-17T00:25:05.604Z,3.00
2023-08-17T00:27:52.072Z,3.10
2023-08-17T00:30:38.838Z,2.90
2023-08-17T00:33:25.772Z,2.90
2023-08-17T00:36:12.239Z,3.00
2023-08-17T00:38:59.886Z,3.10
2023-08-17T00:41:46.085Z,2.80
2023-08-17T00:44:32.840Z,3.40
2023-08-17T00:47:19.467Z,3.00
2023-08-17T00:50:06.578Z,3.30
2023-08-17T00:52:53.908Z,3.07
2023-08-17T00:55:41.995Z,3.23
2023-08-17T00:58:29.349Z,3.80
2023-08-17T01:01:15.764Z,3.87
2023-08-17T01:04:02.104Z,3.90
2023-08-17T01:06:48.393Z,4.27
2023-08-17T01:09:35.191Z,3.90
2023-08-17T01:12:30.968Z,3.90
2023-08-17T01:15:22.364Z,4.33
2023-08-17T01:18:17.778Z,4.10
2023-08-17T01:21:05.951Z,3.77
2023-08-17T01:23:54.280Z,4.03
2023-08-17T01:26:40.478Z,4.63
2023-08-17T01:29:27.337Z,3.90
2023-08-17T01:32:20.660Z,4.60
2023-08-17T01:35:16.884Z,4.07
2023-08-17T01:38:09.083Z,4.00
2023-08-17T01:40:58.945Z,4.20
2023-08-17T01:43:48.100Z,4.13
2023-08-17T01:46:36.015Z,4.23
2023-08-17T01:49:22.797Z,4.23
2023-08-17T01:52:09.609Z,3.93
2023-08-17T01:54:55.865Z,4.00
2023-08-17T01:57:43.862Z,3.90
2023-08-17T02:00:30.368Z,3.90
2023-08-17T02:03:17.002Z,4.30
2023-08-17T02:06:03.423Z,4.17
2023-08-17T02:08:49.848Z,4.17
2023-08-17T02:11:35.940Z,4.47
2023-08-17T02:14:23.995Z,4.10
2023-08-17T02:17:10.302Z,4.20
2023-08-17T02:19:56.730Z,3.80
2023-08-17T02:22:42.864Z,4.07
2023-08-17T02:25:35.000Z,4.33
2023-08-17T02:28:21.708Z,4.30
2023-08-17T02:31:09.198Z,3.90
2023-08-17T02:33:59.606Z,4.17
2023-08-17T02:36:46.204Z,4.23
2023-08-17T02:39:32.397Z,4.10
2023-08-17T02:42:19.308Z,4.30
2023-08-17T02:45:06.202Z,4.23
2023-08-17T02:47:54.340Z,4.67
2023-08-17T02:50:40.553Z,4.50
2023-08-17T02:53:27.218Z,4.37
2023-08-17T02:56:13.340Z,4.87
2023-08-17T02:58:59.383Z,4.67
2023-08-17T03:01:48.068Z,4.50
2023-08-17T03:04:35.649Z,4.53
2023-08-17T03:07:22.182Z,4.80
2023-08-17T03:10:09.115Z,5.23
2023-08-17T03:12:55.563Z,4.93
2023-08-17T03:15:42.096Z,5.23
2023-08-17T03:18:29.009Z,5.30
2023-08-17T03:21:17.350Z,5.37
2023-08-17T03:24:03.864Z,5.13
2023-08-17T03:26:50.214Z,5.63
2023-08-17T03:29:37.130Z,4.80
2023-08-17T03:32:23.889Z,4.87
2023-08-17T03:35:10.584Z,5.70
2023-08-17T03:37:58.464Z,5.03
2023-08-17T03:40:44.849Z,5.40
2023-08-17T03:43:31.014Z,5.13
2023-08-17T03:46:17.661Z,5.57
2023-08-17T03:49:03.930Z,4.83
2023-08-17T03:51:50.803Z,4.90
2023-08-17T03:54:39.327Z,4.53
2023-08-17T03:57:25.910Z,4.83
2023-08-17T04:00:13.048Z,5.20
2023-08-17T04:02:59.571Z,5.20
2023-08-17T04:05:46.419Z,4.80
2023-08-17T04:08:32.672Z,4.80
2023-08-17T04:11:20.940Z,4.60
2023-08-17T04:14:07.196Z,4.80
2023-08-17T04:16:53.820Z,4.50
2023-08-17T04:19:40.092Z,4.63
2023-08-17T04:22:27.033Z,4.70
2023-08-17T04:25:13.179Z,4.93
2023-08-17T04:28:01.492Z,4.97
2023-08-17T04:30:48.121Z,5.03
2023-08-17T04:33:34.827Z,4.87
2023-08-17T04:36:21.360Z,4.57
2023-08-17T04:39:09.448Z,4.67
2023-08-17T04:41:55.774Z,4.80
2023-08-17T04:44:43.679Z,4.80
2023-08-17T04:47:30.154Z,4.80
2023-08-17T04:50:17.412Z,4.70
2023-08-17T04:53:03.857Z,4.83
2023-08-17T04:55:50.606Z,5.00
2023-08-17T04:58:36.941Z,4.50
2023-08-17T05:01:24.560Z,4.60
2023-08-17T05:04:10.934Z,5.17
2023-08-17T05:06:57.560Z,4.60
2023-08-17T05:09:44.018Z,4.90
2023-08-17T05:12:30.686Z,4.30
2023-08-17T05:15:17.024Z,4.57
2023-08-17T05:18:05.487Z,4.67
2023-08-17T05:20:51.929Z,4.63
2023-08-17T05:23:38.467Z,4.93
2023-08-17T05:26:24.876Z,4.30
2023-08-17T05:29:11.276Z,4.73
2023-08-17T05:31:57.680Z,5.10
2023-08-17T05:34:45.429Z,4.77
2023-08-17T05:37:31.757Z,4.33
2023-08-17T05:40:18.630Z,4.60
2023-08-17T05:43:05.182Z,4.27
2023-08-17T05:45:51.990Z,4.40
2023-08-17T05:48:38.323Z,3.97
2023-08-17T05:51:26.284Z,4.37
2023-08-17T05:54:12.780Z,4.40
2023-08-17T05:56:59.701Z,5.10
2023-08-17T05:59:45.955Z,4.17
2023-08-17T06:02:32.377Z,4.40
2023-08-17T06:05:19.738Z,4.30
2023-08-17T06:08:07.771Z,4.87
2023-08-17T06:10:54.165Z,4.53
2023-08-17T06:13:40.288Z,4.90
2023-08-17T06:16:26.688Z,4.23
2023-08-17T06:19:12.800Z,4.80
2023-08-17T06:21:59.678Z,4.70
2023-08-17T06:24:47.076Z,4.97
2023-08-17T06:27:35.113Z,5.03
2023-08-17T06:30:21.309Z,4.73
2023-08-17T06:33:07.359Z,4.90
2023-08-17T06:35:53.845Z,5.00
2023-08-17T06:38:40.360Z,4.77
2023-08-17T06:41:27.951Z,4.93
2023-08-17T06:44:14.351Z,4.77
2023-08-17T06:47:00.734Z,4.77
2023-08-17T06:49:47.463Z,4.93
2023-08-17T06:52:35.453Z,5.03
2023-08-17T06:55:21.642Z,5.20
2023-08-17T06:58:09.420Z,5.03
2023-08-17T07:00:55.822Z,5.10
2023-08-17T07:03:42.026Z,4.70
2023-08-17T07:06:29.750Z,5.07
2023-08-17T07:09:15.848Z,5.57
2023-08-17T07:12:02.411Z,5.20
2023-08-17T07:14:50.190Z,5.20
2023-08-17T07:17:37.563Z,5.70
2023-08-17T07:20:23.922Z,5.47
2023-08-17T07:23:10.447Z,5.40
2023-08-17T07:25:56.801Z,5.77
2023-08-17T07:28:43.533Z,5.77
2023-08-17T07:31:31.789Z,5.37
2023-08-17T07:34:18.563Z,5.37
2023-08-17T07:37:07.016Z,5.53
2023-08-17T07:39:53.189Z,5.83
2023-08-17T07:42:39.754Z,6.13
2023-08-17T07:45:26.218Z,6.60
2023-08-17T07:48:14.093Z,5.40
2023-08-17T07:51:00.482Z,6.03
2023-08-17T07:53:46.990Z,6.07
2023-08-17T07:56:33.610Z,6.40
2023-08-17T07:59:20.263Z,6.13
2023-08-17T08:02:06.472Z,6.30
2023-08-17T08:04:54.573Z,6.20
2023-08-17T08:07:40.814Z,6.43
2023-08-17T08:10:27.703Z,6.47
2023-08-17T08:13:14.835Z,6.47
2023-08-17T08:16:02.674Z,6.47
2023-08-17T08:18:49.299Z,6.80
2023-08-17T08:21:37.511Z,6.73
2023-08-17T08:24:36.513Z,6.83
2023-08-17T08:27:23.626Z,6.57
2023-08-17T08:30:10.339Z,7.33
2023-08-17T08:32:58.997Z,7.37
2023-08-17T08:35:45.072Z,7.03
2023-08-17T08:38:33.149Z,6.93
2023-08-17T08:41:19.880Z,7.60
2023-08-17T08:44:06.650Z,7.70
2023-08-17T08:46:56.257Z,6.83
2023-08-17T08:49:47.296Z,7.20
2023-08-17T08:52:36.620Z,7.53
2023-08-17T08:55:26.306Z,7.57
2023-08-17T08:58:13.262Z,7.57
2023-08-17T09:00:59.951Z,7.17
2023-08-17T09:03:49.387Z,7.77
2023-08-17T09:06:36.463Z,7.80
2023-08-17T09:12:26.338Z,7.90
2023-08-17T09:15:16.146Z,7.53
2023-08-17T09:18:02.890Z,7.27
2023-08-17T09:20:49.787Z,7.00
2023-08-17T09:23:37.696Z,7.60
2023-08-17T09:26:24.961Z,7.63
2023-08-17T09:29:24.130Z,7.27
2023-08-17T09:32:11.474Z,8.37
2023-08-17T09:34:58.005Z,7.77
2023-08-17T09:37:44.260Z,8.13
2023-08-17T09:40:30.880Z,7.97
2023-08-17T09:43:18.394Z,7.57
2023-08-17T09:46:08.599Z,8.57
2023-08-17T09:48:55.618Z,8.50
2023-08-17T09:51:44.435Z,8.77
2023-08-17T09:54:32.920Z,8.10
2023-08-17T09:57:22.685Z,8.43
2023-08-17T10:00:10.922Z,9.37
2023-08-17T10:03:07.686Z,8.70
2023-08-17T10:06:00.014Z,8.40
2023-08-17T10:08:50.550Z,7.97
2023-08-17T10:11:41.555Z,8.17
2023-08-17T10:14:32.387Z,8.00
2023-08-17T10:17:27.600Z,6.77
2023-08-17T10:20:16.439Z,7.83
2023-08-17T10:23:12.837Z,8.07
2023-08-17T10:25:59.328Z,7.93
2023-08-17T10:28:47.299Z,7.90
2023-08-17T10:31:36.858Z,8.03
2023-08-17T10:34:24.082Z,7.97
2023-08-17T10:37:13.509Z,8.10
2023-08-17T10:39:59.973Z,8.10
2023-08-17T10:42:47.363Z,8.90
2023-08-17T10:45:38.932Z,8.20
2023-08-17T10:48:30.503Z,8.23
2023-08-17T10:51:18.185Z,7.70
2023-08-17T10:54:06.562Z,7.77
2023-08-17T10:56:52.958Z,8.13
2023-08-17T10:59:39.380Z,8.80
2023-08-17T11:02:25.987Z,8.90
2023-08-17T11:05:13.501Z,8.60
2023-08-17T11:07:59.748Z,8.77
2023-08-17T11:10:59.040Z,8.73
2023-08-17T11:13:47.618Z,9.37
2023-08-17T11:16:34.115Z,9.80
2023-08-17T11:19:21.618Z,8.97
2023-08-17T11:22:08.357Z,9.30
2023-08-17T11:24:54.603Z,9.60
2023-08-17T11:27:42.307Z,10.00
2023-08-17T11:30:29.833Z,9.43
2023-08-17T11:33:16.105Z,9.47
2023-08-17T11:36:04.412Z,9.50
2023-08-17T11:38:50.780Z,9.47
2023-08-17T11:41:37.157Z,9.50
2023-08-17T11:44:24.995Z,9.53
2023-08-17T11:47:13.304Z,9.40
2023-08-17T11:50:14.647Z,9.30
2023-08-17T11:53:02.094Z,9.93
2023-08-17T11:55:48.282Z,8.77
2023-08-17T11:58:45.290Z,9.23
2023-08-17T12:01:36.154Z,9.43
2023-08-17T12:04:23.697Z,9.27
2023-08-17T12:07:10.217Z,9.40
2023-08-17T12:09:56.656Z,9.77
2023-08-17T12:12:42.978Z,8.70
2023-08-17T12:15:32.561Z,10.07
2023-08-17T12:18:23.052Z,9.53
2023-08-17T12:21:09.530Z,9.43
2023-08-17T12:23:56.012Z,9.63
2023-08-17T12:26:43.489Z,10.33
2023-08-17T12:29:30.223Z,9.53
2023-08-17T12:32:17.899Z,10.17
2023-08-17T12:35:06.228Z,8.83
2023-08-17T12:37:53.497Z,10.03
2023-08-17T12:40:40.319Z,9.33
2023-08-17T12:43:26.526Z,9.40
2023-08-17T12:46:13.061Z,9.23
2023-08-17T12:48:59.133Z,9.43
2023-08-17T12:51:46.733Z,9.47
2023-08-17T12:54:32.976Z,10.50
2023-08-17T12:57:19.272Z,10.73
2023-08-17T13:00:07.417Z,10.80
2023-08-17T13:02:53.647Z,11.20
2023-08-17T13:05:41.082Z,9.97
2023-08-17T13:08:28.732Z,11.13
2023-08-17T13:11:14.831Z,9.80
2023-08-17T13:14:00.986Z,9.57
2023-08-17T13:16:47.404Z,10.23
2023-08-17T13:19:33.749Z,10.93
2023-08-17T13:22:19.955Z,10.00
2023-08-17T13:25:08.996Z,10.83
2023-08-17T13:27:55.108Z,10.57
2023-08-17T13:30:42.117Z,10.90
2023-08-17T13:33:29.337Z,10.57
2023-08-17T13:36:15.623Z,10.00
2023-08-17T13:39:01.893Z,11.30
2023-08-17T13:41:49.845Z,10.70
2023-08-17T13:44:36.494Z,10.43
2023-08-17T13:47:22.841Z,9.73
2023-08-17T13:50:10.215Z,10.43
2023-08-17T13:52:56.556Z,9.60
2023-08-17T13:55:42.951Z,9.80
2023-08-17T13:58:31.022Z,9.73
2023-08-17T14:01:18.424Z,8.87
2023-08-17T14:04:07.720Z,8.60
2023-08-17T14:06:53.886Z,8.67
2023-08-17T14:09:43.274Z,8.50
2023-08-17T14:12:33.097Z,9.07
2023-08-17T14:15:21.354Z,9.80
2023-08-17T14:18:07.657Z,9.07
2023-08-17T14:20:54.036Z,9.77
2023-08-17T14:23:41.014Z,9.27
2023-08-17T14:26:27.482Z,9.23
2023-08-17T14:29:15.900Z,8.90
2023-08-17T14:32:03.978Z,9.93
2023-08-17T14:34:50.069Z,9.90
2023-08-17T14:37:36.329Z,9.97
2023-08-17T14:40:22.488Z,10.43
2023-08-17T14:43:10.451Z,10.63
2023-08-17T14:45:56.987Z,10.73
2023-08-17T14:48:44.749Z,10.23
2023-08-17T14:51:32.124Z,9.83
2023-08-17T14:54:19.148Z,9.03
2023-08-17T14:57:05.936Z,9.67
2023-08-17T14:59:52.466Z,10.60
2023-08-17T15:02:38.932Z,10.40
2023-08-17T15:05:28.779Z,10.13
2023-08-17T15:08:16.557Z,10.97
2023-08-17T15:11:04.164Z,11.13
2023-08-17T15:13:51.054Z,10.73
2023-08-17T15:16:37.513Z,11.37
2023-08-17T15:19:38.386Z,11.50
2023-08-17T15:22:27.924Z,12.07
2023-08-17T15:25:14.081Z,12.27
2023-08-17T15:28:00.499Z,11.60
2023-08-17T15:30:46.687Z,11.97
2023-08-17T15:33:33.152Z,12.40
2023-08-17T15:36:22.871Z,12.77
2023-08-17T15:39:10.665Z,12.45
2023-08-17T15:41:58.195Z,13.37
2023-08-17T15:44:45.139Z,12.57
2023-08-17T15:47:31.910Z,13.10
2023-08-17T15:50:19.149Z,12.77
2023-08-17T15:53:09.606Z,12.30
2023-08-17T15:55:57.266Z,12.57
2023-08-17T15:58:43.735Z,11.87
2023-08-17T16:01:30.412Z,11.33
2023-08-17T16:04:17.169Z,11.83
2023-08-17T16:07:04.039Z,12.33
2023-08-17T16:09:50.274Z,12.10
2023-08-17T16:12:42.688Z,12.13
2023-08-17T16:15:29.660Z,12.50
2023-08-17T16:18:15.843Z,11.90
2023-08-17T16:21:02.287Z,11.50
2023-08-17T16:23:48.819Z,10.97
2023-08-17T16:26:35.670Z,11.80
2023-08-17T16:29:23.412Z,11.83
2023-08-17T16:32:10.173Z,10.93
2023-08-17T16:34:56.691Z,11.97
2023-08-17T16:37:43.411Z,12.23
2023-08-17T16:40:37.897Z,12.20
2023-08-17T16:43:24.748Z,12.43
2023-08-17T16:46:15.691Z,11.83
2023-08-17T16:49:02.706Z,12.00
2023-08-17T16:51:49.180Z,12.10
2023-08-17T16:54:35.369Z,12.83
2023-08-17T16:57:21.862Z,12.47
2023-08-17T17:00:09.829Z,12.93
2023-08-17T17:02:57.657Z,12.37
2023-08-17T17:05:44.176Z,12.07
2023-08-17T17:08:30.678Z,11.50
2023-08-17T17:11:16.917Z,11.87
2023-08-17T17:14:03.413Z,11.53
2023-08-17T17:16:49.563Z,12.23
2023-08-17T17:19:37.354Z,12.60
2023-08-17T17:22:23.918Z,12.87
2023-08-17T17:25:11.037Z,12.30
2023-08-17T17:27:58.201Z,12.73
2023-08-17T17:30:44.476Z,14.10
2023-08-17T17:33:30.780Z,12.97
2023-08-17T17:36:18.254Z,13.13
2023-08-17T17:39:05.088Z,11.83
2023-08-17T17:41:51.280Z,11.80
2023-08-17T17:44:38.135Z,11.13
2023-08-17T17:47:24.555Z,11.20
2023-08-17T17:50:11.535Z,10.67
2023-08-17T17:52:59.036Z,10.60
2023-08-17T17:55:45.716Z,9.90
2023-08-17T17:58:33.162Z,10.83
2023-08-17T18:01:19.734Z,10.33
2023-08-17T18:04:06.840Z,9.57
2023-08-17T18:06:53.327Z,8.90
2023-08-17T18:09:41.069Z,9.07
2023-08-17T18:12:30.033Z,9.67
2023-08-17T18:15:16.411Z,9.40
2023-08-17T18:18:04.025Z,9.00
2023-08-17T18:20:50.109Z,8.93
2023-08-17T18:23:36.249Z,9.00
2023-08-17T18:26:24.038Z,8.50
2023-08-17T18:29:10.308Z,8.97
2023-08-17T18:31:57.132Z,7.97
2023-08-17T18:34:44.162Z,8.00
2023-08-17T18:37:30.672Z,8.03
2023-08-17T18:40:20.672Z,7.63
2023-08-17T18:43:08.423Z,7.53
2023-08-17T18:45:54.886Z,7.90
2023-08-17T18:48:41.118Z,6.67
2023-08-17T18:51:27.600Z,7.00
2023-08-17T18:54:14.108Z,7.03
2023-08-17T18:57:00.706Z,6.83
2023-08-17T18:59:48.241Z,6.87
2023-08-17T19:02:34.780Z,7.00
2023-08-17T19:05:21.166Z,6.47
2023-08-17T19:08:07.962Z,6.20
2023-08-17T19:10:57.091Z,6.37
2023-08-17T19:13:44.060Z,6.57
2023-08-17T19:16:32.190Z,6.57
2023-08-17T19:19:19.447Z,6.20
2023-08-17T19:22:05.850Z,6.60
2023-08-17T19:24:52.697Z,6.60
2023-08-17T19:27:39.577Z,6.37
2023-08-17T19:30:26.050Z,6.90
2023-08-17T19:33:13.584Z,5.90
2023-08-17T19:36:00.227Z,6.20
2023-08-17T19:38:46.678Z,6.40
2023-08-17T19:41:32.973Z,6.23
2023-08-17T19:44:19.836Z,6.10
2023-08-17T19:47:07.691Z,6.43
2023-08-17T19:49:55.517Z,6.67
2023-08-17T19:52:41.837Z,6.80
2023-08-17T19:55:28.772Z,6.17
2023-08-17T19:58:15.140Z,6.20
2023-08-17T20:01:06.397Z,6.40
2023-08-17T20:03:55.055Z,6.93
2023-08-17T20:06:42.609Z,6.47
2023-08-17T20:09:28.677Z,6.70
2023-08-17T20:12:14.967Z,6.33
2023-08-17T20:15:01.874Z,7.13
2023-08-17T20:17:47.947Z,6.93
2023-08-17T20:20:34.179Z,6.57
2023-08-17T20:23:21.861Z,6.83
2023-08-17T20:26:08.453Z,6.93
2023-08-17T20:28:54.820Z,6.70
2023-08-17T20:31:41.857Z,6.60
2023-08-17T20:34:28.433Z,6.87
2023-08-17T20:37:14.966Z,7.03
2023-08-17T20:40:02.774Z,7.43
2023-08-17T20:42:49.015Z,7.03
2023-08-17T20:45:38.758Z,7.30
2023-08-17T20:48:25.653Z,6.73
2023-08-17T20:51:12.200Z,6.80
2023-08-17T20:53:59.393Z,6.90
2023-08-17T20:56:46.937Z,6.60
2023-08-17T20:59:33.298Z,6.43
2023-08-17T21:02:20.660Z,7.23
2023-08-17T21:05:07.578Z,6.53
2023-08-17T21:07:53.882Z,6.97
2023-08-17T21:10:40.463Z,6.40
2023-08-17T21:13:28.686Z,7.07
2023-08-17T21:16:15.519Z,6.50
2023-08-17T21:19:02.111Z,7.63
2023-08-17T21:21:48.532Z,7.17
2023-08-17T21:24:35.001Z,7.07
2023-08-17T21:27:21.301Z,7.00
2023-08-17T21:30:10.244Z,6.93
2023-08-17T21:32:56.331Z,7.23
2023-08-17T21:35:42.596Z,7.27
2023-08-17T21:38:29.317Z,6.90
2023-08-17T21:41:15.817Z,7.27
2023-08-17T21:44:02.786Z,6.83
2023-08-17T21:46:50.952Z,6.90
2023-08-17T21:49:37.317Z,6.53
2023-08-17T21:52:23.908Z,6.87
2023-08-17T21:55:10.399Z,6.87
2023-08-17T21:57:56.861Z,6.70
2023-08-17T22:00:44.000Z,7.27
2023-08-17T22:03:31.952Z,6.50
2023-08-17T22:06:18.103Z,7.53
2023-08-17T22:09:04.953Z,7.40
2023-08-17T22:11:51.370Z,7.10
2023-08-17T22:14:37.819Z,7.03
2023-08-17T22:17:24.428Z,7.83
2023-08-17T22:20:12.814Z,7.60
2023-08-17T22:22:59.336Z,7.13
2023-08-17T22:25:46.351Z,8.03
2023-08-17T22:28:32.757Z,7.67
2023-08-17T22:31:19.252Z,8.10
2023-08-17T22:34:05.684Z,7.33
2023-08-17T22:36:53.424Z,8.67
2023-08-17T22:39:39.988Z,7.53
2023-08-17T22:42:26.144Z,8.53
2023-08-17T22:45:13.132Z,7.90
2023-08-17T22:47:59.474Z,7.87
2023-08-17T22:50:46.333Z,8.67
2023-08-17T22:53:34.072Z,8.80
2023-08-17T22:56:20.508Z,9.13
2023-08-17T22:59:08.085Z,8.90
2023-08-17T23:01:54.791Z,9.70
2023-08-17T23:04:41.166Z,9.07
2023-08-17T23:07:27.896Z,9.17
2023-08-17T23:10:15.597Z,9.17
2023-08-17T23:13:02.403Z,9.57
2023-08-17T23:15:48.722Z,9.43
2023-08-17T23:18:35.267Z,9.63
2023-08-17T23:21:21.549Z,9.13
2023-08-17T23:24:08.551Z,9.97
2023-08-17T23:26:56.156Z,9.13
2023-08-17T23:29:43.077Z,9.73
2023-08-17T23:32:29.277Z,9.13
2023-08-17T23:35:16.035Z,8.97
2023-08-17T23:38:02.258Z,9.70
2023-08-17T23:40:49.431Z,9.50
2023-08-17T23:43:37.196Z,9.07
2023-08-17T23:46:23.298Z,8.93
2023-08-17T23:49:09.872Z,8.83
2023-08-17T23:51:55.999Z,9.57
2023-08-17T23:54:42.213Z,9.73
2023-08-17T23:57:28.767Z,9.60
